sensor_id;sensor_type;location;lat;lon;timestamp;P1;durP1;ratioP1;P2;durP2;ratioP2
39188;SDS011;24915;50.858;4.376;2023-09-08T00:00:55;10.68;;;7.95;;
39188;SDS011;24915;50.858;4.376;2023-09-08T00:03:21;16.33;;;8.63;;
39188;SDS011;24915;50.858;4.376;2023-09-08T00:05:47;17.60;;;8.15;;
39188;SDS011;24915;50.858;4.376;2023-09-08T00:08:13;13.32;;;7.97;;
39188;SDS011;24915;50.858;4.376;2023-09-08T00:10:38;12.85;;;6.70;;
39188;SDS011;24915;50.858;4.376;2023-09-08T00:13:04;9.32;;;6.60;;
39188;SDS011;24915;50.858;4.376;2023-09-08T00:15:30;9.25;;;6.57;;
39188;SDS011;24915;50.858;4.376;2023-09-08T00:17:58;7.15;;;6.45;;
39188;SDS011;24915;50.858;4.376;2023-09-08T00:20:24;11.27;;;7.55;;
39188;SDS011;24915;50.858;4.376;2023-09-08T00:22:50;9.35;;;6.82;;
39188;SDS011;24915;50.858;4.376;2023-09-08T00:25:15;11.60;;;6.60;;
39188;SDS011;24915;50.858;4.376;2023-09-08T00:27:41;9.40;;;6.35;;
39188;SDS011;24915;50.858;4.376;2023-09-08T00:30:07;12.13;;;6.57;;
39188;SDS011;24915;50.858;4.376;2023-09-08T00:32:33;11.40;;;6.50;;
39188;SDS011;24915;50.858;4.376;2023-09-08T00:34:58;8.63;;;6.70;;
39188;SDS011;24915;50.858;4.376;2023-09-08T00:37:24;7.55;;;6.13;;
39188;SDS011;24915;50.858;4.376;2023-09-08T00:39:50;14.13;;;6.85;;
39188;SDS011;24915;50.858;4.376;2023-09-08T00:42:15;8.15;;;5.80;;
39188;SDS011;24915;50.858;4.376;2023-09-08T00:44:41;9.98;;;6.68;;
39188;SDS011;24915;50.858;4.376;2023-09-08T00:47:07;10.05;;;5.95;;
39188;SDS011;24915;50.858;4.376;2023-09-08T00:49:32;12.82;;;6.95;;
39188;SDS011;24915;50.858;4.376;2023-09-08T00:51:58;9.85;;;6.70;;
39188;SDS011;24915;50.858;4.376;2023-09-08T00:54:24;9.50;;;7.05;;
39188;SDS011;24915;50.858;4.376;2023-09-08T00:56:52;9.52;;;6.65;;
39188;SDS011;24915;50.858;4.376;2023-09-08T00:59:22;7.60;;;6.80;;
39188;SDS011;24915;50.858;4.376;2023-09-08T01:01:48;8.77;;;6.72;;
39188;SDS011;24915;50.858;4.376;2023-09-08T01:04:13;10.13;;;6.88;;
39188;SDS011;24915;50.858;4.376;2023-09-08T01:06:39;11.77;;;6.90;;
39188;SDS011;24915;50.858;4.376;2023-09-08T01:09:05;10.70;;;7.10;;
39188;SDS011;24915;50.858;4.376;2023-09-08T01:11:31;9.43;;;6.85;;
39188;SDS011;24915;50.858;4.376;2023-09-08T01:13:57;8.45;;;6.75;;
39188;SDS011;24915;50.858;4.376;2023-09-08T01:16:22;11.20;;;6.80;;
39188;SDS011;24915;50.858;4.376;2023-09-08T01:18:48;10.85;;;8.23;;
39188;SDS011;24915;50.858;4.376;2023-09-08T01:24:11;9.95;;;6.90;;
39188;SDS011;24915;50.858;4.376;2023-09-08T01:26:41;11.07;;;7.40;;
39188;SDS011;24915;50.858;4.376;2023-09-08T01:29:07;10.68;;;7.00;;
39188;SDS011;24915;50.858;4.376;2023-09-08T01:31:35;10.95;;;7.38;;
39188;SDS011;24915;50.858;4.376;2023-09-08T01:34:02;10.75;;;6.68;;
39188;SDS011;24915;50.858;4.376;2023-09-08T01:36:32;8.68;;;7.32;;
39188;SDS011;24915;50.858;4.376;2023-09-08T01:38:59;10.63;;;7.05;;
39188;SDS011;24915;50.858;4.376;2023-09-08T01:41:25;9.77;;;7.50;;
39188;SDS011;24915;50.858;4.376;2023-09-08T01:43:50;10.60;;;7.45;;
39188;SDS011;24915;50.858;4.376;2023-09-08T01:46:16;12.57;;;6.85;;
39188;SDS011;24915;50.858;4.376;2023-09-08T01:48:42;9.15;;;7.13;;
39188;SDS011;24915;50.858;4.376;2023-09-08T01:51:08;15.80;;;7.40;;
39188;SDS011;24915;50.858;4.376;2023-09-08T01:53:33;10.82;;;7.03;;
39188;SDS011;24915;50.858;4.376;2023-09-08T01:55:59;8.25;;;6.53;;
39188;SDS011;24915;50.858;4.376;2023-09-08T01:58:25;9.95;;;6.85;;
39188;SDS011;24915;50.858;4.376;2023-09-08T02:00:51;10.25;;;7.30;;
39188;SDS011;24915;50.858;4.376;2023-09-08T02:03:17;14.38;;;7.10;;
39188;SDS011;24915;50.858;4.376;2023-09-08T02:05:43;12.90;;;7.05;;
39188;SDS011;24915;50.858;4.376;2023-09-08T02:08:10;10.10;;;7.43;;
39188;SDS011;24915;50.858;4.376;2023-09-08T02:10:35;11.52;;;7.35;;
39188;SDS011;24915;50.858;4.376;2023-09-08T02:13:04;10.35;;;7.13;;
39188;SDS011;24915;50.858;4.376;2023-09-08T02:15:29;11.25;;;7.53;;
39188;SDS011;24915;50.858;4.376;2023-09-08T02:17:55;8.65;;;7.60;;
39188;SDS011;24915;50.858;4.376;2023-09-08T02:20:21;12.90;;;7.75;;
39188;SDS011;24915;50.858;4.376;2023-09-08T02:22:49;10.23;;;7.32;;
39188;SDS011;24915;50.858;4.376;2023-09-08T02:25:18;10.68;;;8.13;;
39188;SDS011;24915;50.858;4.376;2023-09-08T02:27:44;9.55;;;7.38;;
39188;SDS011;24915;50.858;4.376;2023-09-08T02:30:09;10.45;;;6.95;;
39188;SDS011;24915;50.858;4.376;2023-09-08T02:32:35;11.77;;;7.80;;
39188;SDS011;24915;50.858;4.376;2023-09-08T02:35:01;12.07;;;7.78;;
39188;SDS011;24915;50.858;4.376;2023-09-08T02:37:26;9.93;;;7.40;;
39188;SDS011;24915;50.858;4.376;2023-09-08T02:39:52;14.38;;;8.20;;
39188;SDS011;24915;50.858;4.376;2023-09-08T02:42:18;12.45;;;7.43;;
39188;SDS011;24915;50.858;4.376;2023-09-08T02:44:43;8.80;;;7.70;;
39188;SDS011;24915;50.858;4.376;2023-09-08T02:47:09;10.60;;;7.50;;
39188;SDS011;24915;50.858;4.376;2023-09-08T02:49:35;7.43;;;6.60;;
39188;SDS011;24915;50.858;4.376;2023-09-08T02:52:01;9.52;;;7.82;;
39188;SDS011;24915;50.858;4.376;2023-09-08T02:54:26;9.82;;;6.82;;
39188;SDS011;24915;50.858;4.376;2023-09-08T02:56:52;9.43;;;7.18;;
39188;SDS011;24915;50.858;4.376;2023-09-08T02:59:18;7.68;;;6.75;;
39188;SDS011;24915;50.858;4.376;2023-09-08T03:01:43;8.90;;;6.80;;
39188;SDS011;24915;50.858;4.376;2023-09-08T03:04:09;9.23;;;6.60;;
39188;SDS011;24915;50.858;4.376;2023-09-08T03:06:35;10.05;;;7.32;;
39188;SDS011;24915;50.858;4.376;2023-09-08T03:09:00;8.85;;;7.22;;
39188;SDS011;24915;50.858;4.376;2023-09-08T03:11:26;9.05;;;7.30;;
39188;SDS011;24915;50.858;4.376;2023-09-08T03:13:51;9.55;;;7.30;;
39188;SDS011;24915;50.858;4.376;2023-09-08T03:16:17;8.48;;;7.00;;
39188;SDS011;24915;50.858;4.376;2023-09-08T03:18:43;12.68;;;7.30;;
39188;SDS011;24915;50.858;4.376;2023-09-08T03:21:08;8.55;;;7.65;;
39188;SDS011;24915;50.858;4.376;2023-09-08T03:26:07;11.32;;;6.95;;
39188;SDS011;24915;50.858;4.376;2023-09-08T03:28:33;10.35;;;7.53;;
39188;SDS011;24915;50.858;4.376;2023-09-08T03:31:02;8.38;;;7.18;;
39188;SDS011;24915;50.858;4.376;2023-09-08T03:33:28;13.50;;;7.20;;
39188;SDS011;24915;50.858;4.376;2023-09-08T03:35:54;10.35;;;7.05;;
39188;SDS011;24915;50.858;4.376;2023-09-08T03:38:20;10.52;;;7.72;;
39188;SDS011;24915;50.858;4.376;2023-09-08T03:40:46;10.18;;;7.20;;
39188;SDS011;24915;50.858;4.376;2023-09-08T03:43:12;10.32;;;7.35;;
39188;SDS011;24915;50.858;4.376;2023-09-08T03:45:38;9.20;;;7.30;;
39188;SDS011;24915;50.858;4.376;2023-09-08T03:48:03;9.50;;;7.05;;
39188;SDS011;24915;50.858;4.376;2023-09-08T03:50:29;10.30;;;7.45;;
39188;SDS011;24915;50.858;4.376;2023-09-08T03:52:55;9.52;;;7.10;;
39188;SDS011;24915;50.858;4.376;2023-09-08T03:55:21;7.85;;;7.13;;
39188;SDS011;24915;50.858;4.376;2023-09-08T03:57:47;13.00;;;7.05;;
39188;SDS011;24915;50.858;4.376;2023-09-08T04:00:13;10.98;;;8.00;;
39188;SDS011;24915;50.858;4.376;2023-09-08T04:02:45;7.63;;;6.78;;
39188;SDS011;24915;50.858;4.376;2023-09-08T04:05:11;8.63;;;7.05;;
39188;SDS011;24915;50.858;4.376;2023-09-08T04:07:37;11.30;;;7.57;;
39188;SDS011;24915;50.858;4.376;2023-09-08T04:10:02;8.30;;;7.50;;
39188;SDS011;24915;50.858;4.376;2023-09-08T04:12:29;8.90;;;7.13;;
39188;SDS011;24915;50.858;4.376;2023-09-08T04:14:54;9.63;;;7.65;;
39188;SDS011;24915;50.858;4.376;2023-09-08T04:17:20;11.45;;;7.22;;
39188;SDS011;24915;50.858;4.376;2023-09-08T04:19:45;9.93;;;6.80;;
39188;SDS011;24915;50.858;4.376;2023-09-08T04:22:11;10.13;;;7.50;;
39188;SDS011;24915;50.858;4.376;2023-09-08T04:24:38;8.77;;;7.00;;
39188;SDS011;24915;50.858;4.376;2023-09-08T04:27:03;11.85;;;7.95;;
39188;SDS011;24915;50.858;4.376;2023-09-08T04:29:29;8.15;;;7.35;;
39188;SDS011;24915;50.858;4.376;2023-09-08T04:31:55;10.52;;;7.38;;
39188;SDS011;24915;50.858;4.376;2023-09-08T04:34:20;12.23;;;8.48;;
39188;SDS011;24915;50.858;4.376;2023-09-08T04:36:46;11.02;;;7.97;;
39188;SDS011;24915;50.858;4.376;2023-09-08T04:39:12;13.95;;;8.00;;
39188;SDS011;24915;50.858;4.376;2023-09-08T04:41:39;13.65;;;8.38;;
39188;SDS011;24915;50.858;4.376;2023-09-08T04:44:04;12.20;;;7.57;;
39188;SDS011;24915;50.858;4.376;2023-09-08T04:46:30;10.10;;;8.27;;
39188;SDS011;24915;50.858;4.376;2023-09-08T04:48:56;16.02;;;8.10;;
39188;SDS011;24915;50.858;4.376;2023-09-08T04:51:21;16.05;;;8.20;;
39188;SDS011;24915;50.858;4.376;2023-09-08T04:53:47;13.13;;;8.07;;
39188;SDS011;24915;50.858;4.376;2023-09-08T04:56:13;14.65;;;8.68;;
39188;SDS011;24915;50.858;4.376;2023-09-08T04:58:39;16.05;;;8.10;;
39188;SDS011;24915;50.858;4.376;2023-09-08T05:01:04;12.75;;;8.38;;
39188;SDS011;24915;50.858;4.376;2023-09-08T05:03:30;14.30;;;8.98;;
39188;SDS011;24915;50.858;4.376;2023-09-08T05:05:56;17.40;;;10.68;;
39188;SDS011;24915;50.858;4.376;2023-09-08T05:08:22;16.08;;;9.40;;
39188;SDS011;24915;50.858;4.376;2023-09-08T05:10:48;16.98;;;10.27;;
39188;SDS011;24915;50.858;4.376;2023-09-08T05:13:16;13.07;;;8.70;;
39188;SDS011;24915;50.858;4.376;2023-09-08T05:15:42;15.35;;;8.73;;
39188;SDS011;24915;50.858;4.376;2023-09-08T05:18:09;13.48;;;8.05;;
39188;SDS011;24915;50.858;4.376;2023-09-08T05:20:34;14.52;;;8.88;;
39188;SDS011;24915;50.858;4.376;2023-09-08T05:23:00;16.90;;;9.32;;
39188;SDS011;24915;50.858;4.376;2023-09-08T05:25:26;14.27;;;8.98;;
39188;SDS011;24915;50.858;4.376;2023-09-08T05:27:51;12.82;;;8.70;;
39188;SDS011;24915;50.858;4.376;2023-09-08T05:30:17;18.42;;;9.38;;
39188;SDS011;24915;50.858;4.376;2023-09-08T05:32:43;18.00;;;9.50;;
39188;SDS011;24915;50.858;4.376;2023-09-08T05:35:09;21.85;;;10.23;;
39188;SDS011;24915;50.858;4.376;2023-09-08T05:37:34;20.98;;;11.65;;
39188;SDS011;24915;50.858;4.376;2023-09-08T05:40:00;21.38;;;11.07;;
39188;SDS011;24915;50.858;4.376;2023-09-08T05:42:26;14.90;;;10.05;;
39188;SDS011;24915;50.858;4.376;2023-09-08T05:44:51;15.85;;;8.93;;
39188;SDS011;24915;50.858;4.376;2023-09-08T05:47:19;16.48;;;8.90;;
39188;SDS011;24915;50.858;4.376;2023-09-08T05:49:45;18.00;;;9.20;;
39188;SDS011;24915;50.858;4.376;2023-09-08T05:52:11;19.17;;;8.80;;
39188;SDS011;24915;50.858;4.376;2023-09-08T05:54:36;15.90;;;8.23;;
39188;SDS011;24915;50.858;4.376;2023-09-08T05:57:02;18.08;;;8.48;;
39188;SDS011;24915;50.858;4.376;2023-09-08T05:59:28;19.13;;;7.50;;
39188;SDS011;24915;50.858;4.376;2023-09-08T06:01:53;19.95;;;7.03;;
39188;SDS011;24915;50.858;4.376;2023-09-08T06:04:19;12.30;;;6.90;;
39188;SDS011;24915;50.858;4.376;2023-09-08T06:06:45;12.13;;;7.15;;
39188;SDS011;24915;50.858;4.376;2023-09-08T06:09:10;13.95;;;8.02;;
39188;SDS011;24915;50.858;4.376;2023-09-08T06:11:37;8.93;;;7.15;;
39188;SDS011;24915;50.858;4.376;2023-09-08T06:14:02;14.43;;;7.15;;
39188;SDS011;24915;50.858;4.376;2023-09-08T06:16:28;12.45;;;7.32;;
39188;SDS011;24915;50.858;4.376;2023-09-08T06:18:54;11.60;;;6.85;;
39188;SDS011;24915;50.858;4.376;2023-09-08T06:21:20;9.45;;;6.45;;
39188;SDS011;24915;50.858;4.376;2023-09-08T06:23:45;21.85;;;7.68;;
39188;SDS011;24915;50.858;4.376;2023-09-08T06:26:11;9.63;;;6.80;;
39188;SDS011;24915;50.858;4.376;2023-09-08T06:28:37;13.32;;;7.45;;
39188;SDS011;24915;50.858;4.376;2023-09-08T06:31:04;11.82;;;7.00;;
39188;SDS011;24915;50.858;4.376;2023-09-08T06:33:30;12.77;;;6.32;;
39188;SDS011;24915;50.858;4.376;2023-09-08T06:35:55;17.27;;;8.43;;
39188;SDS011;24915;50.858;4.376;2023-09-08T06:38:21;14.57;;;7.18;;
39188;SDS011;24915;50.858;4.376;2023-09-08T06:40:46;17.88;;;7.10;;
39188;SDS011;24915;50.858;4.376;2023-09-08T06:43:13;15.18;;;7.93;;
39188;SDS011;24915;50.858;4.376;2023-09-08T06:45:39;13.23;;;6.57;;
39188;SDS011;24915;50.858;4.376;2023-09-08T06:48:07;9.68;;;6.80;;
39188;SDS011;24915;50.858;4.376;2023-09-08T06:50:33;8.93;;;6.75;;
39188;SDS011;24915;50.858;4.376;2023-09-08T06:53:00;18.38;;;6.22;;
39188;SDS011;24915;50.858;4.376;2023-09-08T06:55:25;23.10;;;6.95;;
39188;SDS011;24915;50.858;4.376;2023-09-08T06:57:51;20.38;;;7.60;;
39188;SDS011;24915;50.858;4.376;2023-09-08T07:00:17;20.85;;;7.75;;
39188;SDS011;24915;50.858;4.376;2023-09-08T07:02:42;18.25;;;7.70;;
39188;SDS011;24915;50.858;4.376;2023-09-08T07:05:08;11.05;;;7.18;;
39188;SDS011;24915;50.858;4.376;2023-09-08T07:07:34;19.52;;;7.20;;
39188;SDS011;24915;50.858;4.376;2023-09-08T07:10:01;22.80;;;7.63;;
39188;SDS011;24915;50.858;4.376;2023-09-08T07:12:29;10.52;;;7.10;;
39188;SDS011;24915;50.858;4.376;2023-09-08T07:14:56;12.07;;;7.15;;
39188;SDS011;24915;50.858;4.376;2023-09-08T07:17:21;15.23;;;7.20;;
39188;SDS011;24915;50.858;4.376;2023-09-08T07:19:50;15.43;;;6.60;;
39188;SDS011;24915;50.858;4.376;2023-09-08T07:22:16;22.65;;;6.70;;
39188;SDS011;24915;50.858;4.376;2023-09-08T07:24:42;14.65;;;6.50;;
39188;SDS011;24915;50.858;4.376;2023-09-08T07:27:09;16.67;;;6.80;;
39188;SDS011;24915;50.858;4.376;2023-09-08T07:29:35;19.08;;;6.35;;
39188;SDS011;24915;50.858;4.376;2023-09-08T07:32:00;13.27;;;6.93;;
39188;SDS011;24915;50.858;4.376;2023-09-08T07:34:26;14.45;;;6.63;;
39188;SDS011;24915;50.858;4.376;2023-09-08T07:36:52;17.75;;;6.97;;
39188;SDS011;24915;50.858;4.376;2023-09-08T07:39:17;16.63;;;6.93;;
39188;SDS011;24915;50.858;4.376;2023-09-08T07:41:43;14.77;;;6.25;;
39188;SDS011;24915;50.858;4.376;2023-09-08T07:44:09;12.68;;;6.47;;
39188;SDS011;24915;50.858;4.376;2023-09-08T07:46:35;19.52;;;6.90;;
39188;SDS011;24915;50.858;4.376;2023-09-08T07:49:01;16.90;;;7.15;;
39188;SDS011;24915;50.858;4.376;2023-09-08T07:51:26;8.90;;;5.97;;
39188;SDS011;24915;50.858;4.376;2023-09-08T07:53:53;10.70;;;7.65;;
39188;SDS011;24915;50.858;4.376;2023-09-08T07:56:18;14.32;;;6.15;;
39188;SDS011;24915;50.858;4.376;2023-09-08T07:58:44;7.07;;;6.20;;
39188;SDS011;24915;50.858;4.376;2023-09-08T08:01:10;11.10;;;6.22;;
39188;SDS011;24915;50.858;4.376;2023-09-08T08:03:38;11.02;;;5.80;;
39188;SDS011;24915;50.858;4.376;2023-09-08T08:06:03;13.05;;;6.25;;
39188;SDS011;24915;50.858;4.376;2023-09-08T08:08:30;13.60;;;6.35;;
39188;SDS011;24915;50.858;4.376;2023-09-08T08:10:55;13.35;;;6.20;;
39188;SDS011;24915;50.858;4.376;2023-09-08T08:13:21;17.88;;;7.13;;
39188;SDS011;24915;50.858;4.376;2023-09-08T08:15:47;23.13;;;8.15;;
39188;SDS011;24915;50.858;4.376;2023-09-08T08:18:12;15.32;;;7.63;;
39188;SDS011;24915;50.858;4.376;2023-09-08T08:20:38;14.05;;;7.60;;
39188;SDS011;24915;50.858;4.376;2023-09-08T08:23:05;14.70;;;7.20;;
39188;SDS011;24915;50.858;4.376;2023-09-08T08:25:31;14.23;;;6.90;;
39188;SDS011;24915;50.858;4.376;2023-09-08T08:27:57;17.90;;;7.20;;
39188;SDS011;24915;50.858;4.376;2023-09-08T08:30:25;16.05;;;6.93;;
39188;SDS011;24915;50.858;4.376;2023-09-08T08:32:52;20.73;;;7.70;;
39188;SDS011;24915;50.858;4.376;2023-09-08T08:35:19;18.85;;;6.90;;
39188;SDS011;24915;50.858;4.376;2023-09-08T08:37:45;14.38;;;6.22;;
39188;SDS011;24915;50.858;4.376;2023-09-08T08:40:11;15.13;;;6.07;;
39188;SDS011;24915;50.858;4.376;2023-09-08T08:42:40;20.77;;;6.85;;
39188;SDS011;24915;50.858;4.376;2023-09-08T08:45:07;13.05;;;5.85;;
39188;SDS011;24915;50.858;4.376;2023-09-08T08:47:33;9.48;;;6.40;;
39188;SDS011;24915;50.858;4.376;2023-09-08T08:49:59;12.63;;;6.40;;
39188;SDS011;24915;50.858;4.376;2023-09-08T08:52:28;10.18;;;6.57;;
39188;SDS011;24915;50.858;4.376;2023-09-08T08:54:55;13.27;;;6.28;;
39188;SDS011;24915;50.858;4.376;2023-09-08T08:57:21;12.13;;;6.10;;
39188;SDS011;24915;50.858;4.376;2023-09-08T08:59:47;20.83;;;6.63;;
39188;SDS011;24915;50.858;4.376;2023-09-08T09:02:16;14.23;;;6.93;;
39188;SDS011;24915;50.858;4.376;2023-09-08T09:04:43;12.98;;;5.75;;
39188;SDS011;24915;50.858;4.376;2023-09-08T09:07:10;12.77;;;5.97;;
39188;SDS011;24915;50.858;4.376;2023-09-08T09:09:36;19.77;;;5.80;;
39188;SDS011;24915;50.858;4.376;2023-09-08T09:12:04;11.50;;;5.75;;
39188;SDS011;24915;50.858;4.376;2023-09-08T09:14:33;12.18;;;6.13;;
39188;SDS011;24915;50.858;4.376;2023-09-08T09:17:00;15.05;;;6.63;;
39188;SDS011;24915;50.858;4.376;2023-09-08T09:19:26;29.17;;;6.70;;
39188;SDS011;24915;50.858;4.376;2023-09-08T09:21:57;18.15;;;6.80;;
39188;SDS011;24915;50.858;4.376;2023-09-08T09:27:02;12.38;;;5.93;;
39188;SDS011;24915;50.858;4.376;2023-09-08T09:29:30;12.77;;;5.82;;
39188;SDS011;24915;50.858;4.376;2023-09-08T09:32:03;20.38;;;6.18;;
39188;SDS011;24915;50.858;4.376;2023-09-08T09:34:34;22.05;;;6.82;;
39188;SDS011;24915;50.858;4.376;2023-09-08T09:37:00;19.25;;;6.57;;
39188;SDS011;24915;50.858;4.376;2023-09-08T09:39:26;12.20;;;6.00;;
39188;SDS011;24915;50.858;4.376;2023-09-08T09:41:55;21.25;;;5.93;;
39188;SDS011;24915;50.858;4.376;2023-09-08T09:44:22;14.43;;;5.50;;
39188;SDS011;24915;50.858;4.376;2023-09-08T09:46:51;21.92;;;6.40;;
39188;SDS011;24915;50.858;4.376;2023-09-08T09:49:17;17.42;;;5.63;;
39188;SDS011;24915;50.858;4.376;2023-09-08T09:51:44;17.50;;;5.40;;
39188;SDS011;24915;50.858;4.376;2023-09-08T09:54:12;18.08;;;5.57;;
39188;SDS011;24915;50.858;4.376;2023-09-08T09:56:38;8.73;;;4.90;;
39188;SDS011;24915;50.858;4.376;2023-09-08T09:59:08;20.10;;;5.90;;
39188;SDS011;24915;50.858;4.376;2023-09-08T10:01:36;10.88;;;4.88;;
39188;SDS011;24915;50.858;4.376;2023-09-08T10:04:03;11.07;;;4.72;;
39188;SDS011;24915;50.858;4.376;2023-09-08T10:06:33;18.65;;;5.57;;
39188;SDS011;24915;50.858;4.376;2023-09-08T10:09:01;9.52;;;4.97;;
39188;SDS011;24915;50.858;4.376;2023-09-08T10:11:41;9.65;;;5.07;;
39188;SDS011;24915;50.858;4.376;2023-09-08T10:14:09;8.82;;;4.43;;
39188;SDS011;24915;50.858;4.376;2023-09-08T10:16:38;12.68;;;4.78;;
39188;SDS011;24915;50.858;4.376;2023-09-08T10:19:07;11.48;;;4.88;;
39188;SDS011;24915;50.858;4.376;2023-09-08T10:21:36;13.57;;;5.45;;
39188;SDS011;24915;50.858;4.376;2023-09-08T10:24:10;19.67;;;5.70;;
39188;SDS011;24915;50.858;4.376;2023-09-08T10:27:05;10.05;;;5.60;;
39188;SDS011;24915;50.858;4.376;2023-09-08T10:29:34;15.35;;;5.28;;
39188;SDS011;24915;50.858;4.376;2023-09-08T10:32:01;12.00;;;5.13;;
39188;SDS011;24915;50.858;4.376;2023-09-08T10:34:28;14.85;;;5.03;;
39188;SDS011;24915;50.858;4.376;2023-09-08T10:36:55;17.05;;;4.47;;
39188;SDS011;24915;50.858;4.376;2023-09-08T10:39:27;12.02;;;4.50;;
39188;SDS011;24915;50.858;4.376;2023-09-08T10:44:43;6.93;;;3.75;;
39188;SDS011;24915;50.858;4.376;2023-09-08T10:47:09;11.32;;;4.88;;
39188;SDS011;24915;50.858;4.376;2023-09-08T10:49:36;9.20;;;4.22;;
39188;SDS011;24915;50.858;4.376;2023-09-08T10:52:10;10.95;;;4.00;;
39188;SDS011;24915;50.858;4.376;2023-09-08T10:54:40;10.25;;;3.70;;
39188;SDS011;24915;50.858;4.376;2023-09-08T10:57:13;8.88;;;4.30;;
39188;SDS011;24915;50.858;4.376;2023-09-08T11:05:16;9.15;;;4.35;;
39188;SDS011;24915;50.858;4.376;2023-09-08T11:07:44;6.70;;;3.75;;
39188;SDS011;24915;50.858;4.376;2023-09-08T11:10:10;10.48;;;4.38;;
39188;SDS011;24915;50.858;4.376;2023-09-08T11:12:37;8.82;;;3.60;;
39188;SDS011;24915;50.858;4.376;2023-09-08T11:15:03;11.75;;;3.88;;
39188;SDS011;24915;50.858;4.376;2023-09-08T11:17:32;14.98;;;4.25;;
39188;SDS011;24915;50.858;4.376;2023-09-08T11:20:00;5.55;;;3.80;;
39188;SDS011;24915;50.858;4.376;2023-09-08T11:22:26;8.55;;;4.05;;
39188;SDS011;24915;50.858;4.376;2023-09-08T11:24:52;8.80;;;3.50;;
39188;SDS011;24915;50.858;4.376;2023-09-08T11:27:19;10.00;;;3.72;;
39188;SDS011;24915;50.858;4.376;2023-09-08T11:29:46;4.88;;;3.83;;
39188;SDS011;24915;50.858;4.376;2023-09-08T11:32:12;11.20;;;3.70;;
39188;SDS011;24915;50.858;4.376;2023-09-08T11:34:38;7.80;;;3.50;;
39188;SDS011;24915;50.858;4.376;2023-09-08T11:37:12;16.77;;;3.53;;
39188;SDS011;24915;50.858;4.376;2023-09-08T11:39:41;9.60;;;3.70;;
39188;SDS011;24915;50.858;4.376;2023-09-08T11:42:08;14.82;;;3.78;;
39188;SDS011;24915;50.858;4.376;2023-09-08T11:44:36;6.60;;;3.53;;
39188;SDS011;24915;50.858;4.376;2023-09-08T11:47:02;7.82;;;3.00;;
39188;SDS011;24915;50.858;4.376;2023-09-08T11:49:35;6.40;;;3.55;;
39188;SDS011;24915;50.858;4.376;2023-09-08T11:52:01;15.35;;;3.28;;
39188;SDS011;24915;50.858;4.376;2023-09-08T11:54:28;6.45;;;3.97;;
39188;SDS011;24915;50.858;4.376;2023-09-08T11:57:01;8.57;;;3.50;;
39188;SDS011;24915;50.858;4.376;2023-09-08T11:59:30;10.02;;;3.38;;
39188;SDS011;24915;50.858;4.376;2023-09-08T12:01:57;9.68;;;3.28;;
39188;SDS011;24915;50.858;4.376;2023-09-08T12:04:24;12.07;;;3.78;;
39188;SDS011;24915;50.858;4.376;2023-09-08T12:06:51;6.95;;;3.85;;
39188;SDS011;24915;50.858;4.376;2023-09-08T12:09:17;8.23;;;3.90;;
39188;SDS011;24915;50.858;4.376;2023-09-08T12:11:43;11.20;;;3.47;;
39188;SDS011;24915;50.858;4.376;2023-09-08T12:14:10;14.48;;;3.08;;
39188;SDS011;24915;50.858;4.376;2023-09-08T12:16:37;10.98;;;3.05;;
39188;SDS011;24915;50.858;4.376;2023-09-08T12:19:03;7.68;;;2.53;;
39188;SDS011;24915;50.858;4.376;2023-09-08T12:21:29;7.88;;;3.90;;
39188;SDS011;24915;50.858;4.376;2023-09-08T12:23:57;9.48;;;3.70;;
39188;SDS011;24915;50.858;4.376;2023-09-08T12:26:25;4.97;;;3.05;;
39188;SDS011;24915;50.858;4.376;2023-09-08T12:28:51;7.38;;;3.22;;
39188;SDS011;24915;50.858;4.376;2023-09-08T12:31:17;10.98;;;3.40;;
39188;SDS011;24915;50.858;4.376;2023-09-08T12:33:43;4.78;;;3.08;;
39188;SDS011;24915;50.858;4.376;2023-09-08T12:36:16;11.18;;;3.38;;
39188;SDS011;24915;50.858;4.376;2023-09-08T12:38:52;13.40;;;2.95;;
39188;SDS011;24915;50.858;4.376;2023-09-08T12:41:18;7.97;;;3.20;;
39188;SDS011;24915;50.858;4.376;2023-09-08T12:43:44;8.70;;;3.03;;
39188;SDS011;24915;50.858;4.376;2023-09-08T12:46:11;12.95;;;2.83;;
39188;SDS011;24915;50.858;4.376;2023-09-08T12:48:37;7.10;;;2.83;;
39188;SDS011;24915;50.858;4.376;2023-09-08T12:51:02;6.32;;;3.03;;
39188;SDS011;24915;50.858;4.376;2023-09-08T12:53:33;13.35;;;2.78;;
39188;SDS011;24915;50.858;4.376;2023-09-08T12:56:00;10.25;;;3.42;;
39188;SDS011;24915;50.858;4.376;2023-09-08T12:58:26;9.55;;;2.90;;
39188;SDS011;24915;50.858;4.376;2023-09-08T13:00:53;5.03;;;2.83;;
39188;SDS011;24915;50.858;4.376;2023-09-08T13:03:19;7.20;;;3.13;;
39188;SDS011;24915;50.858;4.376;2023-09-08T13:05:45;14.15;;;3.53;;
39188;SDS011;24915;50.858;4.376;2023-09-08T13:08:10;10.23;;;4.85;;
39188;SDS011;24915;50.858;4.376;2023-09-08T13:10:36;7.00;;;3.42;;
39188;SDS011;24915;50.858;4.376;2023-09-08T13:13:02;13.43;;;3.30;;
39188;SDS011;24915;50.858;4.376;2023-09-08T13:15:29;11.60;;;3.22;;
39188;SDS011;24915;50.858;4.376;2023-09-08T13:17:55;16.30;;;3.72;;
39188;SDS011;24915;50.858;4.376;2023-09-08T13:20:21;12.07;;;3.22;;
39188;SDS011;24915;50.858;4.376;2023-09-08T13:22:47;10.30;;;3.00;;
39188;SDS011;24915;50.858;4.376;2023-09-08T13:25:12;19.33;;;3.30;;
39188;SDS011;24915;50.858;4.376;2023-09-08T13:27:40;14.32;;;3.55;;
39188;SDS011;24915;50.858;4.376;2023-09-08T13:30:09;10.07;;;3.67;;
39188;SDS011;24915;50.858;4.376;2023-09-08T13:35:05;10.45;;;3.60;;
39188;SDS011;24915;50.858;4.376;2023-09-08T13:37:31;20.02;;;4.78;;
39188;SDS011;24915;50.858;4.376;2023-09-08T13:39:59;13.35;;;4.13;;
39188;SDS011;24915;50.858;4.376;2023-09-08T13:42:31;18.90;;;5.68;;
39188;SDS011;24915;50.858;4.376;2023-09-08T13:44:56;24.42;;;4.35;;
39188;SDS011;24915;50.858;4.376;2023-09-08T13:47:22;23.50;;;4.57;;
39188;SDS011;24915;50.858;4.376;2023-09-08T13:49:48;18.88;;;4.30;;
39188;SDS011;24915;50.858;4.376;2023-09-08T13:52:14;18.50;;;4.18;;
39188;SDS011;24915;50.858;4.376;2023-09-08T13:54:39;23.13;;;4.35;;
39188;SDS011;24915;50.858;4.376;2023-09-08T13:57:05;17.58;;;6.28;;
39188;SDS011;24915;50.858;4.376;2023-09-08T13:59:31;20.48;;;6.57;;
39188;SDS011;24915;50.858;4.376;2023-09-08T14:01:57;13.65;;;4.75;;
39188;SDS011;24915;50.858;4.376;2023-09-08T14:04:24;25.10;;;5.15;;
39188;SDS011;24915;50.858;4.376;2023-09-08T14:06:50;20.27;;;4.70;;
39188;SDS011;24915;50.858;4.376;2023-09-08T14:09:16;15.60;;;3.95;;
39188;SDS011;24915;50.858;4.376;2023-09-08T14:11:42;15.63;;;4.10;;
39188;SDS011;24915;50.858;4.376;2023-09-08T14:14:08;19.20;;;4.20;;
39188;SDS011;24915;50.858;4.376;2023-09-08T14:16:33;13.85;;;3.88;;
39188;SDS011;24915;50.858;4.376;2023-09-08T14:19:00;11.60;;;3.70;;
39188;SDS011;24915;50.858;4.376;2023-09-08T14:21:26;15.98;;;3.85;;
39188;SDS011;24915;50.858;4.376;2023-09-08T14:23:51;14.20;;;4.72;;
39188;SDS011;24915;50.858;4.376;2023-09-08T14:26:17;26.60;;;4.50;;
39188;SDS011;24915;50.858;4.376;2023-09-08T14:28:44;18.15;;;4.75;;
39188;SDS011;24915;50.858;4.376;2023-09-08T14:31:10;21.98;;;5.30;;
39188;SDS011;24915;50.858;4.376;2023-09-08T14:33:36;16.95;;;4.82;;
39188;SDS011;24915;50.858;4.376;2023-09-08T14:36:02;16.08;;;4.60;;
39188;SDS011;24915;50.858;4.376;2023-09-08T14:38:28;18.55;;;4.78;;
39188;SDS011;24915;50.858;4.376;2023-09-08T14:41:02;15.57;;;4.35;;
39188;SDS011;24915;50.858;4.376;2023-09-08T14:43:28;14.95;;;4.35;;
39188;SDS011;24915;50.858;4.376;2023-09-08T14:45:54;21.60;;;4.68;;
39188;SDS011;24915;50.858;4.376;2023-09-08T14:48:23;20.13;;;4.47;;
39188;SDS011;24915;50.858;4.376;2023-09-08T14:50:50;25.48;;;5.05;;
39188;SDS011;24915;50.858;4.376;2023-09-08T14:53:15;17.77;;;5.07;;